sensor_id;sensor_type;location;lat;lon;timestamp;P1;durP1;ratioP1;P2;durP2;ratioP2
74849;SDS011;63397;47.480;19.238;2023-06-22T00:02:20;6.13;;;2.97;;
74849;SDS011;63397;47.480;19.238;2023-06-22T00:05:22;6.88;;;2.80;;
74849;SDS011;63397;47.480;19.238;2023-06-22T00:08:24;8.00;;;2.95;;
74849;SDS011;63397;47.480;19.238;2023-06-22T00:11:27;6.67;;;2.80;;
74849;SDS011;63397;47.480;19.238;2023-06-22T00:14:29;7.30;;;2.95;;
74849;SDS011;63397;47.480;19.238;2023-06-22T00:17:32;7.47;;;3.05;;
74849;SDS011;63397;47.480;19.238;2023-06-22T00:20:35;7.47;;;2.90;;
74849;SDS011;63397;47.480;19.238;2023-06-22T00:23:39;7.53;;;3.42;;
74849;SDS011;63397;47.480;19.238;2023-06-22T00:26:41;7.60;;;2.83;;
74849;SDS011;63397;47.480;19.238;2023-06-22T00:29:44;6.75;;;3.00;;
74849;SDS011;63397;47.480;19.238;2023-06-22T00:32:46;7.97;;;2.80;;
74849;SDS011;63397;47.480;19.238;2023-06-22T00:35:49;7.63;;;3.15;;
74849;SDS011;63397;47.480;19.238;2023-06-22T00:38:54;9.48;;;3.30;;
74849;SDS011;63397;47.480;19.238;2023-06-22T00:41:57;7.77;;;3.33;;
74849;SDS011;63397;47.480;19.238;2023-06-22T00:44:59;8.07;;;3.42;;
74849;SDS011;63397;47.480;19.238;2023-06-22T00:48:01;7.82;;;3.10;;
74849;SDS011;63397;47.480;19.238;2023-06-22T00:51:04;8.23;;;3.08;;
74849;SDS011;63397;47.480;19.238;2023-06-22T00:54:07;6.70;;;3.40;;
74849;SDS011;63397;47.480;19.238;2023-06-22T00:57:09;8.00;;;3.30;;
74849;SDS011;63397;47.480;19.238;2023-06-22T01:00:16;9.90;;;3.85;;
74849;SDS011;63397;47.480;19.238;2023-06-22T01:03:21;7.30;;;3.58;;
74849;SDS011;63397;47.480;19.238;2023-06-22T01:06:29;9.02;;;4.10;;
74849;SDS011;63397;47.480;19.238;2023-06-22T01:09:35;8.32;;;3.78;;
74849;SDS011;63397;47.480;19.238;2023-06-22T01:13:00;10.60;;;3.93;;
74849;SDS011;63397;47.480;19.238;2023-06-22T01:16:07;7.82;;;3.42;;
74849;SDS011;63397;47.480;19.238;2023-06-22T01:19:23;7.47;;;3.33;;
74849;SDS011;63397;47.480;19.238;2023-06-22T01:22:30;7.03;;;3.35;;
74849;SDS011;63397;47.480;19.238;2023-06-22T01:25:36;7.22;;;3.55;;
74849;SDS011;63397;47.480;19.238;2023-06-22T01:28:49;9.47;;;3.70;;
74849;SDS011;63397;47.480;19.238;2023-06-22T01:31:52;6.43;;;3.10;;
74849;SDS011;63397;47.480;19.238;2023-06-22T01:34:56;9.07;;;3.90;;
74849;SDS011;63397;47.480;19.238;2023-06-22T01:38:00;8.95;;;3.28;;
74849;SDS011;63397;47.480;19.238;2023-06-22T01:41:03;9.82;;;3.95;;
74849;SDS011;63397;47.480;19.238;2023-06-22T01:44:05;7.83;;;3.67;;
74849;SDS011;63397;47.480;19.238;2023-06-22T01:47:10;8.55;;;3.35;;
74849;SDS011;63397;47.480;19.238;2023-06-22T01:50:12;8.00;;;3.78;;
74849;SDS011;63397;47.480;19.238;2023-06-22T01:53:15;11.73;;;3.70;;
74849;SDS011;63397;47.480;19.238;2023-06-22T01:56:17;7.15;;;3.55;;
74849;SDS011;63397;47.480;19.238;2023-06-22T01:59:45;6.57;;;3.43;;
74849;SDS011;63397;47.480;19.238;2023-06-22T02:05:48;9.18;;;4.35;;
74849;SDS011;63397;47.480;19.238;2023-06-22T02:08:54;8.63;;;4.07;;
74849;SDS011;63397;47.480;19.238;2023-06-22T02:11:57;10.43;;;4.28;;
74849;SDS011;63397;47.480;19.238;2023-06-22T02:15:00;8.43;;;4.10;;
74849;SDS011;63397;47.480;19.238;2023-06-22T02:18:05;9.50;;;4.20;;
74849;SDS011;63397;47.480;19.238;2023-06-22T02:21:07;9.15;;;4.18;;
74849;SDS011;63397;47.480;19.238;2023-06-22T02:24:10;9.57;;;3.97;;
74849;SDS011;63397;47.480;19.238;2023-06-22T02:27:12;7.97;;;3.85;;
74849;SDS011;63397;47.480;19.238;2023-06-22T02:30:14;7.90;;;3.63;;
74849;SDS011;63397;47.480;19.238;2023-06-22T02:33:18;8.82;;;3.65;;
74849;SDS011;63397;47.480;19.238;2023-06-22T02:36:21;8.63;;;3.83;;
74849;SDS011;63397;47.480;19.238;2023-06-22T02:39:28;8.85;;;3.85;;
74849;SDS011;63397;47.480;19.238;2023-06-22T02:42:30;8.40;;;3.88;;
74849;SDS011;63397;47.480;19.238;2023-06-22T02:45:33;7.80;;;3.90;;
74849;SDS011;63397;47.480;19.238;2023-06-22T02:48:35;10.68;;;3.53;;
74849;SDS011;63397;47.480;19.238;2023-06-22T02:51:38;10.40;;;3.63;;
74849;SDS011;63397;47.480;19.238;2023-06-22T02:54:42;9.65;;;4.00;;
74849;SDS011;63397;47.480;19.238;2023-06-22T02:57:44;8.70;;;4.10;;
74849;SDS011;63397;47.480;19.238;2023-06-22T03:00:49;6.47;;;3.17;;
74849;SDS011;63397;47.480;19.238;2023-06-22T03:03:55;7.15;;;3.13;;
74849;SDS011;63397;47.480;19.238;2023-06-22T03:06:58;7.40;;;3.28;;
74849;SDS011;63397;47.480;19.238;2023-06-22T03:10:05;8.95;;;3.22;;
74849;SDS011;63397;47.480;19.238;2023-06-22T03:13:07;7.13;;;3.30;;
74849;SDS011;63397;47.480;19.238;2023-06-22T03:16:11;7.90;;;3.00;;
74849;SDS011;63397;47.480;19.238;2023-06-22T03:19:13;7.10;;;3.33;;
74849;SDS011;63397;47.480;19.238;2023-06-22T03:22:16;7.70;;;3.22;;
74849;SDS011;63397;47.480;19.238;2023-06-22T03:25:18;8.48;;;3.45;;
74849;SDS011;63397;47.480;19.238;2023-06-22T03:28:23;9.40;;;3.60;;
74849;SDS011;63397;47.480;19.238;2023-06-22T03:31:25;7.67;;;3.10;;
74849;SDS011;63397;47.480;19.238;2023-06-22T03:34:28;8.93;;;3.53;;
74849;SDS011;63397;47.480;19.238;2023-06-22T03:37:30;7.97;;;3.10;;
74849;SDS011;63397;47.480;19.238;2023-06-22T03:40:32;8.05;;;3.35;;
74849;SDS011;63397;47.480;19.238;2023-06-22T03:43:35;7.75;;;3.47;;
74849;SDS011;63397;47.480;19.238;2023-06-22T03:46:38;8.10;;;3.27;;
74849;SDS011;63397;47.480;19.238;2023-06-22T03:49:41;7.30;;;3.47;;
74849;SDS011;63397;47.480;19.238;2023-06-22T03:52:43;9.90;;;3.47;;
74849;SDS011;63397;47.480;19.238;2023-06-22T03:55:49;7.28;;;3.70;;
74849;SDS011;63397;47.480;19.238;2023-06-22T03:58:52;7.05;;;3.80;;
74849;SDS011;63397;47.480;19.238;2023-06-22T04:01:55;9.30;;;3.90;;
74849;SDS011;63397;47.480;19.238;2023-06-22T04:04:57;7.30;;;3.15;;
74849;SDS011;63397;47.480;19.238;2023-06-22T04:08:02;9.05;;;3.50;;
74849;SDS011;63397;47.480;19.238;2023-06-22T04:11:04;8.70;;;3.20;;
74849;SDS011;63397;47.480;19.238;2023-06-22T04:14:07;6.68;;;3.50;;
74849;SDS011;63397;47.480;19.238;2023-06-22T04:17:09;9.40;;;3.50;;
74849;SDS011;63397;47.480;19.238;2023-06-22T04:20:12;7.53;;;3.50;;
74849;SDS011;63397;47.480;19.238;2023-06-22T04:23:14;9.18;;;3.50;;
74849;SDS011;63397;47.480;19.238;2023-06-22T04:26:16;7.70;;;3.60;;
74849;SDS011;63397;47.480;19.238;2023-06-22T04:29:19;9.82;;;3.38;;
74849;SDS011;63397;47.480;19.238;2023-06-22T04:32:21;10.73;;;3.80;;
74849;SDS011;63397;47.480;19.238;2023-06-22T04:35:24;6.15;;;3.25;;
74849;SDS011;63397;47.480;19.238;2023-06-22T04:38:26;10.23;;;3.72;;
74849;SDS011;63397;47.480;19.238;2023-06-22T04:41:28;8.45;;;3.97;;
74849;SDS011;63397;47.480;19.238;2023-06-22T04:44:31;7.47;;;4.07;;
74849;SDS011;63397;47.480;19.238;2023-06-22T04:47:33;7.53;;;3.53;;
74849;SDS011;63397;47.480;19.238;2023-06-22T04:50:36;7.43;;;3.67;;
74849;SDS011;63397;47.480;19.238;2023-06-22T04:53:40;8.88;;;3.63;;
74849;SDS011;63397;47.480;19.238;2023-06-22T04:56:43;8.13;;;4.20;;
74849;SDS011;63397;47.480;19.238;2023-06-22T04:59:48;11.00;;;4.38;;
74849;SDS011;63397;47.480;19.238;2023-06-22T05:02:51;9.53;;;4.80;;
74849;SDS011;63397;47.480;19.238;2023-06-22T05:05:59;11.65;;;3.95;;
74849;SDS011;63397;47.480;19.238;2023-06-22T05:09:02;8.75;;;3.88;;
74849;SDS011;63397;47.480;19.238;2023-06-22T05:12:05;8.65;;;3.47;;
74849;SDS011;63397;47.480;19.238;2023-06-22T05:15:12;8.50;;;3.92;;
74849;SDS011;63397;47.480;19.238;2023-06-22T05:18:14;6.63;;;3.30;;
74849;SDS011;63397;47.480;19.238;2023-06-22T05:21:17;6.88;;;3.33;;
74849;SDS011;63397;47.480;19.238;2023-06-22T05:24:19;8.50;;;4.13;;
74849;SDS011;63397;47.480;19.238;2023-06-22T05:27:21;11.43;;;3.97;;
74849;SDS011;63397;47.480;19.238;2023-06-22T05:30:24;8.55;;;4.13;;
74849;SDS011;63397;47.480;19.238;2023-06-22T05:33:26;9.00;;;4.33;;
74849;SDS011;63397;47.480;19.238;2023-06-22T05:36:28;9.50;;;4.32;;
74849;SDS011;63397;47.480;19.238;2023-06-22T05:39:31;9.35;;;4.13;;
74849;SDS011;63397;47.480;19.238;2023-06-22T05:42:33;9.00;;;3.85;;
74849;SDS011;63397;47.480;19.238;2023-06-22T05:45:35;10.35;;;4.35;;
74849;SDS011;63397;47.480;19.238;2023-06-22T05:48:38;10.00;;;5.17;;
74849;SDS011;63397;47.480;19.238;2023-06-22T05:51:40;10.23;;;5.03;;
74849;SDS011;63397;47.480;19.238;2023-06-22T05:54:43;10.23;;;5.20;;
74849;SDS011;63397;47.480;19.238;2023-06-22T05:57:45;10.25;;;5.38;;
74849;SDS011;63397;47.480;19.238;2023-06-22T06:00:47;10.57;;;5.13;;
74849;SDS011;63397;47.480;19.238;2023-06-22T06:03:50;10.67;;;5.60;;
74849;SDS011;63397;47.480;19.238;2023-06-22T06:06:54;10.10;;;5.18;;
74849;SDS011;63397;47.480;19.238;2023-06-22T06:09:56;10.05;;;5.18;;
74849;SDS011;63397;47.480;19.238;2023-06-22T06:12:59;11.10;;;5.50;;
74849;SDS011;63397;47.480;19.238;2023-06-22T06:16:04;9.88;;;5.20;;
74849;SDS011;63397;47.480;19.238;2023-06-22T06:19:06;8.63;;;4.77;;
74849;SDS011;63397;47.480;19.238;2023-06-22T06:22:08;7.80;;;4.35;;
74849;SDS011;63397;47.480;19.238;2023-06-22T06:25:11;9.35;;;5.00;;
74849;SDS011;63397;47.480;19.238;2023-06-22T06:28:18;8.52;;;5.10;;
74849;SDS011;63397;47.480;19.238;2023-06-22T06:31:20;8.32;;;4.10;;
74849;SDS011;63397;47.480;19.238;2023-06-22T06:34:23;10.07;;;4.20;;
74849;SDS011;63397;47.480;19.238;2023-06-22T06:37:25;8.30;;;4.53;;
74849;SDS011;63397;47.480;19.238;2023-06-22T06:40:27;7.40;;;4.45;;
74849;SDS011;63397;47.480;19.238;2023-06-22T06:43:30;7.25;;;4.32;;
74849;SDS011;63397;47.480;19.238;2023-06-22T06:46:32;9.30;;;4.20;;
74849;SDS011;63397;47.480;19.238;2023-06-22T06:49:35;7.23;;;4.10;;
74849;SDS011;63397;47.480;19.238;2023-06-22T06:52:37;7.53;;;3.40;;
74849;SDS011;63397;47.480;19.238;2023-06-22T06:55:40;6.25;;;3.67;;
74849;SDS011;63397;47.480;19.238;2023-06-22T06:58:42;6.50;;;3.63;;
74849;SDS011;63397;47.480;19.238;2023-06-22T07:01:47;5.78;;;3.30;;
74849;SDS011;63397;47.480;19.238;2023-06-22T07:04:50;5.90;;;3.10;;
74849;SDS011;63397;47.480;19.238;2023-06-22T07:07:53;5.85;;;3.10;;
74849;SDS011;63397;47.480;19.238;2023-06-22T07:10:55;5.22;;;2.80;;
74849;SDS011;63397;47.480;19.238;2023-06-22T07:13:57;6.25;;;2.58;;
74849;SDS011;63397;47.480;19.238;2023-06-22T07:17:00;7.63;;;2.50;;
74849;SDS011;63397;47.480;19.238;2023-06-22T07:20:02;4.83;;;2.57;;
74849;SDS011;63397;47.480;19.238;2023-06-22T07:23:09;6.43;;;2.40;;
74849;SDS011;63397;47.480;19.238;2023-06-22T07:26:12;5.55;;;2.70;;
74849;SDS011;63397;47.480;19.238;2023-06-22T07:29:14;5.18;;;2.53;;
74849;SDS011;63397;47.480;19.238;2023-06-22T07:32:17;5.18;;;2.97;;
74849;SDS011;63397;47.480;19.238;2023-06-22T07:35:19;7.37;;;2.67;;
74849;SDS011;63397;47.480;19.238;2023-06-22T07:38:21;5.35;;;2.70;;
74849;SDS011;63397;47.480;19.238;2023-06-22T07:41:24;5.78;;;2.70;;
74849;SDS011;63397;47.480;19.238;2023-06-22T07:44:26;6.18;;;2.42;;
74849;SDS011;63397;47.480;19.238;2023-06-22T07:47:28;6.55;;;3.08;;
74849;SDS011;63397;47.480;19.238;2023-06-22T07:50:31;5.73;;;2.70;;
74849;SDS011;63397;47.480;19.238;2023-06-22T07:53:33;6.28;;;2.67;;
74849;SDS011;63397;47.480;19.238;2023-06-22T07:56:36;7.40;;;2.80;;
74849;SDS011;63397;47.480;19.238;2023-06-22T07:59:39;5.93;;;2.80;;
74849;SDS011;63397;47.480;19.238;2023-06-22T08:02:42;5.85;;;2.50;;
74849;SDS011;63397;47.480;19.238;2023-06-22T08:05:44;5.43;;;2.70;;
74849;SDS011;63397;47.480;19.238;2023-06-22T08:08:47;6.30;;;2.70;;
74849;SDS011;63397;47.480;19.238;2023-06-22T08:11:54;6.82;;;2.75;;
74849;SDS011;63397;47.480;19.238;2023-06-22T08:14:58;5.88;;;2.83;;
74849;SDS011;63397;47.480;19.238;2023-06-22T08:18:00;7.03;;;2.80;;
74849;SDS011;63397;47.480;19.238;2023-06-22T08:21:03;5.73;;;3.00;;
74849;SDS011;63397;47.480;19.238;2023-06-22T08:24:07;5.20;;;2.90;;
74849;SDS011;63397;47.480;19.238;2023-06-22T08:27:10;6.22;;;3.35;;
74849;SDS011;63397;47.480;19.238;2023-06-22T08:30:14;5.13;;;2.90;;
74849;SDS011;63397;47.480;19.238;2023-06-22T08:33:16;5.75;;;3.22;;
74849;SDS011;63397;47.480;19.238;2023-06-22T08:36:29;6.83;;;3.40;;
74849;SDS011;63397;47.480;19.238;2023-06-22T08:39:34;6.90;;;3.60;;
74849;SDS011;63397;47.480;19.238;2023-06-22T08:42:37;7.97;;;3.50;;
74849;SDS011;63397;47.480;19.238;2023-06-22T08:45:40;7.15;;;4.10;;
74849;SDS011;63397;47.480;19.238;2023-06-22T08:48:43;6.82;;;3.33;;
74849;SDS011;63397;47.480;19.238;2023-06-22T08:51:45;7.10;;;3.70;;
74849;SDS011;63397;47.480;19.238;2023-06-22T08:54:51;7.43;;;3.90;;
74849;SDS011;63397;47.480;19.238;2023-06-22T08:57:53;5.72;;;4.10;;
74849;SDS011;63397;47.480;19.238;2023-06-22T09:00:56;7.05;;;3.95;;
74849;SDS011;63397;47.480;19.238;2023-06-22T09:03:59;7.25;;;4.18;;
74849;SDS011;63397;47.480;19.238;2023-06-22T09:07:02;7.10;;;3.93;;
74849;SDS011;63397;47.480;19.238;2023-06-22T09:10:05;7.13;;;4.20;;
74849;SDS011;63397;47.480;19.238;2023-06-22T09:13:07;9.77;;;4.60;;
74849;SDS011;63397;47.480;19.238;2023-06-22T09:16:10;6.70;;;4.63;;
74849;SDS011;63397;47.480;19.238;2023-06-22T09:19:12;8.55;;;4.97;;
74849;SDS011;63397;47.480;19.238;2023-06-22T09:22:15;8.57;;;4.40;;
74849;SDS011;63397;47.480;19.238;2023-06-22T09:25:17;6.82;;;4.43;;
74849;SDS011;63397;47.480;19.238;2023-06-22T09:28:22;7.82;;;4.45;;
74849;SDS011;63397;47.480;19.238;2023-06-22T09:31:24;7.82;;;4.25;;
74849;SDS011;63397;47.480;19.238;2023-06-22T09:34:27;8.32;;;4.80;;
74849;SDS011;63397;47.480;19.238;2023-06-22T09:37:30;8.67;;;4.40;;
74849;SDS011;63397;47.480;19.238;2023-06-22T09:40:32;8.18;;;4.45;;
74849;SDS011;63397;47.480;19.238;2023-06-22T09:43:37;7.40;;;4.82;;
74849;SDS011;63397;47.480;19.238;2023-06-22T09:46:39;9.73;;;4.82;;
74849;SDS011;63397;47.480;19.238;2023-06-22T09:49:42;7.15;;;4.68;;
74849;SDS011;63397;47.480;19.238;2023-06-22T09:52:49;8.27;;;4.97;;
74849;SDS011;63397;47.480;19.238;2023-06-22T09:55:57;7.68;;;5.13;;
74849;SDS011;63397;47.480;19.238;2023-06-22T09:58:59;10.10;;;5.60;;
74849;SDS011;63397;47.480;19.238;2023-06-22T10:02:19;7.55;;;5.03;;
74849;SDS011;63397;47.480;19.238;2023-06-22T10:05:22;8.68;;;5.60;;
74849;SDS011;63397;47.480;19.238;2023-06-22T10:08:25;8.77;;;5.20;;
74849;SDS011;63397;47.480;19.238;2023-06-22T10:11:27;9.48;;;5.50;;
74849;SDS011;63397;47.480;19.238;2023-06-22T10:14:32;9.88;;;6.13;;
74849;SDS011;63397;47.480;19.238;2023-06-22T10:17:34;9.00;;;5.80;;
74849;SDS011;63397;47.480;19.238;2023-06-22T10:20:37;8.60;;;5.60;;
74849;SDS011;63397;47.480;19.238;2023-06-22T10:23:39;10.90;;;5.37;;
74849;SDS011;63397;47.480;19.238;2023-06-22T10:26:41;9.35;;;6.15;;
74849;SDS011;63397;47.480;19.238;2023-06-22T10:29:44;8.40;;;6.10;;
74849;SDS011;63397;47.480;19.238;2023-06-22T10:32:46;10.73;;;5.93;;
74849;SDS011;63397;47.480;19.238;2023-06-22T10:35:48;9.52;;;5.72;;
74849;SDS011;63397;47.480;19.238;2023-06-22T10:38:51;8.60;;;6.03;;
74849;SDS011;63397;47.480;19.238;2023-06-22T10:41:54;10.38;;;6.15;;
74849;SDS011;63397;47.480;19.238;2023-06-22T10:44:58;8.80;;;6.15;;
74849;SDS011;63397;47.480;19.238;2023-06-22T10:48:00;9.10;;;6.07;;
74849;SDS011;63397;47.480;19.238;2023-06-22T10:51:02;9.00;;;6.10;;
74849;SDS011;63397;47.480;19.238;2023-06-22T10:54:05;8.20;;;6.07;;
74849;SDS011;63397;47.480;19.238;2023-06-22T10:57:07;8.02;;;6.25;;
74849;SDS011;63397;47.480;19.238;2023-06-22T11:00:10;10.25;;;6.25;;
74849;SDS011;63397;47.480;19.238;2023-06-22T11:03:13;8.50;;;6.20;;
74849;SDS011;63397;47.480;19.238;2023-06-22T11:06:16;8.20;;;5.95;;
74849;SDS011;63397;47.480;19.238;2023-06-22T11:09:18;9.00;;;6.33;;
74849;SDS011;63397;47.480;19.238;2023-06-22T11:12:30;8.45;;;5.80;;
74849;SDS011;63397;47.480;19.238;2023-06-22T11:15:32;8.65;;;6.10;;
74849;SDS011;63397;47.480;19.238;2023-06-22T11:18:35;9.50;;;6.30;;
74849;SDS011;63397;47.480;19.238;2023-06-22T11:21:38;8.98;;;6.00;;
74849;SDS011;63397;47.480;19.238;2023-06-22T11:24:40;8.33;;;5.70;;
74849;SDS011;63397;47.480;19.238;2023-06-22T11:27:43;7.75;;;5.82;;
74849;SDS011;63397;47.480;19.238;2023-06-22T11:30:45;8.75;;;5.90;;
74849;SDS011;63397;47.480;19.238;2023-06-22T11:33:48;9.43;;;6.20;;
74849;SDS011;63397;47.480;19.238;2023-06-22T11:36:50;9.95;;;6.32;;
74849;SDS011;63397;47.480;19.238;2023-06-22T11:39:52;10.47;;;5.80;;
74849;SDS011;63397;47.480;19.238;2023-06-22T11:43:08;8.63;;;5.50;;
74849;SDS011;63397;47.480;19.238;2023-06-22T11:46:10;8.70;;;5.93;;
74849;SDS011;63397;47.480;19.238;2023-06-22T11:49:13;9.60;;;5.80;;
74849;SDS011;63397;47.480;19.238;2023-06-22T11:52:15;7.75;;;5.65;;
74849;SDS011;63397;47.480;19.238;2023-06-22T11:55:19;9.73;;;5.80;;
74849;SDS011;63397;47.480;19.238;2023-06-22T11:58:22;10.20;;;6.78;;
74849;SDS011;63397;47.480;19.238;2023-06-22T12:01:24;9.88;;;6.50;;
74849;SDS011;63397;47.480;19.238;2023-06-22T12:04:27;10.68;;;6.50;;
74849;SDS011;63397;47.480;19.238;2023-06-22T12:07:29;9.00;;;6.32;;
74849;SDS011;63397;47.480;19.238;2023-06-22T12:10:31;7.50;;;5.80;;
74849;SDS011;63397;47.480;19.238;2023-06-22T12:13:34;10.20;;;6.05;;
74849;SDS011;63397;47.480;19.238;2023-06-22T12:16:36;8.48;;;6.00;;
74849;SDS011;63397;47.480;19.238;2023-06-22T12:19:39;10.02;;;6.15;;
74849;SDS011;63397;47.480;19.238;2023-06-22T12:22:42;9.13;;;6.03;;
74849;SDS011;63397;47.480;19.238;2023-06-22T12:25:44;9.03;;;5.80;;
74849;SDS011;63397;47.480;19.238;2023-06-22T12:28:47;8.40;;;6.05;;
74849;SDS011;63397;47.480;19.238;2023-06-22T12:31:49;10.05;;;6.65;;
74849;SDS011;63397;47.480;19.238;2023-06-22T12:34:52;10.27;;;6.80;;
74849;SDS011;63397;47.480;19.238;2023-06-22T12:37:54;9.32;;;6.30;;
74849;SDS011;63397;47.480;19.238;2023-06-22T12:40:56;10.20;;;6.20;;
74849;SDS011;63397;47.480;19.238;2023-06-22T12:43:59;8.15;;;5.60;;
74849;SDS011;63397;47.480;19.238;2023-06-22T12:47:01;8.88;;;5.55;;
74849;SDS011;63397;47.480;19.238;2023-06-22T12:50:04;8.73;;;5.50;;
74849;SDS011;63397;47.480;19.238;2023-06-22T12:53:07;7.47;;;5.45;;
74849;SDS011;63397;47.480;19.238;2023-06-22T12:56:09;8.23;;;5.43;;
74849;SDS011;63397;47.480;19.238;2023-06-22T12:59:11;9.00;;;5.30;;
74849;SDS011;63397;47.480;19.238;2023-06-22T13:02:14;10.50;;;5.88;;
74849;SDS011;63397;47.480;19.238;2023-06-22T13:05:16;9.10;;;5.82;;
74849;SDS011;63397;47.480;19.238;2023-06-22T13:08:18;9.60;;;6.00;;
74849;SDS011;63397;47.480;19.238;2023-06-22T13:11:21;10.13;;;5.63;;
74849;SDS011;63397;47.480;19.238;2023-06-22T13:14:23;8.00;;;5.32;;
74849;SDS011;63397;47.480;19.238;2023-06-22T13:17:25;8.45;;;5.97;;
74849;SDS011;63397;47.480;19.238;2023-06-22T13:20:28;8.80;;;5.57;;
74849;SDS011;63397;47.480;19.238;2023-06-22T13:23:30;8.02;;;5.22;;
74849;SDS011;63397;47.480;19.238;2023-06-22T13:26:33;7.60;;;5.20;;
74849;SDS011;63397;47.480;19.238;2023-06-22T13:29:35;8.68;;;6.00;;
74849;SDS011;63397;47.480;19.238;2023-06-22T13:32:37;10.02;;;6.03;;
74849;SDS011;63397;47.480;19.238;2023-06-22T13:35:41;8.65;;;5.60;;
74849;SDS011;63397;47.480;19.238;2023-06-22T13:38:46;7.47;;;6.18;;
74849;SDS011;63397;47.480;19.238;2023-06-22T13:41:49;8.70;;;6.10;;
74849;SDS011;63397;47.480;19.238;2023-06-22T13:44:51;9.38;;;5.85;;
74849;SDS011;63397;47.480;19.238;2023-06-22T13:47:53;8.07;;;5.93;;
74849;SDS011;63397;47.480;19.238;2023-06-22T13:50:56;9.15;;;5.75;;
74849;SDS011;63397;47.480;19.238;2023-06-22T13:53:58;7.93;;;5.55;;
74849;SDS011;63397;47.480;19.238;2023-06-22T13:57:00;8.03;;;5.77;;
74849;SDS011;63397;47.480;19.238;2023-06-22T14:00:03;8.00;;;5.43;;
74849;SDS011;63397;47.480;19.238;2023-06-22T14:03:12;8.73;;;5.68;;
74849;SDS011;63397;47.480;19.238;2023-06-22T14:06:17;7.07;;;5.18;;
74849;SDS011;63397;47.480;19.238;2023-06-22T14:09:20;7.32;;;5.63;;
74849;SDS011;63397;47.480;19.238;2023-06-22T14:12:22;8.70;;;5.57;;
74849;SDS011;63397;47.480;19.238;2023-06-22T14:15:24;7.32;;;5.30;;
74849;SDS011;63397;47.480;19.238;2023-06-22T14:18:26;8.27;;;5.18;;
74849;SDS011;63397;47.480;19.238;2023-06-22T14:21:29;7.75;;;5.15;;
74849;SDS011;63397;47.480;19.238;2023-06-22T14:24:31;6.60;;;5.10;;
74849;SDS011;63397;47.480;19.238;2023-06-22T14:27:33;8.57;;;5.13;;
74849;SDS011;63397;47.480;19.238;2023-06-22T14:30:36;8.15;;;5.50;;
74849;SDS011;63397;47.480;19.238;2023-06-22T14:33:38;7.30;;;5.40;;
74849;SDS011;63397;47.480;19.238;2023-06-22T14:36:41;9.48;;;5.70;;
74849;SDS011;63397;47.480;19.238;2023-06-22T14:39:43;9.10;;;5.88;;
74849;SDS011;63397;47.480;19.238;2023-06-22T14:42:45;7.57;;;5.40;;
74849;SDS011;63397;47.480;19.238;2023-06-22T14:45:47;9.45;;;6.00;;
74849;SDS011;63397;47.480;19.238;2023-06-22T14:48:51;7.70;;;5.43;;
74849;SDS011;63397;47.480;19.238;2023-06-22T14:51:54;8.85;;;6.13;;
74849;SDS011;63397;47.480;19.238;2023-06-22T14:54:56;8.80;;;5.80;;
74849;SDS011;63397;47.480;19.238;2023-06-22T14:57:58;7.67;;;5.13;;
74849;SDS011;63397;47.480;19.238;2023-06-22T15:01:01;8.57;;;5.18;;
74849;SDS011;63397;47.480;19.238;2023-06-22T15:04:04;8.23;;;5.65;;
74849;SDS011;63397;47.480;19.238;2023-06-22T15:07:06;8.07;;;5.35;;
74849;SDS011;63397;47.480;19.238;2023-06-22T15:10:09;9.05;;;5.63;;
74849;SDS011;63397;47.480;19.238;2023-06-22T15:13:11;8.50;;;5.67;;
74849;SDS011;63397;47.480;19.238;2023-06-22T15:16:14;10.27;;;6.10;;
74849;SDS011;63397;47.480;19.238;2023-06-22T15:19:17;9.02;;;5.60;;
74849;SDS011;63397;47.480;19.238;2023-06-22T15:22:19;9.90;;;5.82;;
74849;SDS011;63397;47.480;19.238;2023-06-22T15:25:21;9.68;;;6.07;;
74849;SDS011;63397;47.480;19.238;2023-06-22T15:28:24;9.43;;;5.17;;
74849;SDS011;63397;47.480;19.238;2023-06-22T15:31:26;8.38;;;5.40;;
74849;SDS011;63397;47.480;19.238;2023-06-22T15:34:29;8.82;;;5.55;;
74849;SDS011;63397;47.480;19.238;2023-06-22T15:37:31;9.10;;;5.95;;
74849;SDS011;63397;47.480;19.238;2023-06-22T15:40:33;7.43;;;5.47;;
74849;SDS011;63397;47.480;19.238;2023-06-22T15:43:36;8.17;;;5.73;;
74849;SDS011;63397;47.480;19.238;2023-06-22T15:46:38;10.23;;;5.88;;
74849;SDS011;63397;47.480;19.238;2023-06-22T15:49:40;8.15;;;5.88;;
74849;SDS011;63397;47.480;19.238;2023-06-22T15:52:43;7.47;;;5.45;;
74849;SDS011;63397;47.480;19.238;2023-06-22T15:55:49;7.80;;;5.47;;
74849;SDS011;63397;47.480;19.238;2023-06-22T15:58:51;7.67;;;5.37;;
74849;SDS011;63397;47.480;19.238;2023-06-22T16:01:54;7.15;;;5.07;;
74849;SDS011;63397;47.480;19.238;2023-06-22T16:04:57;8.07;;;5.72;;
74849;SDS011;63397;47.480;19.238;2023-06-22T16:08:01;8.77;;;6.25;;
74849;SDS011;63397;47.480;19.238;2023-06-22T16:11:04;8.98;;;5.80;;
74849;SDS011;63397;47.480;19.238;2023-06-22T16:14:06;9.07;;;5.90;;
74849;SDS011;63397;47.480;19.238;2023-06-22T16:17:10;8.25;;;5.35;;
74849;SDS011;63397;47.480;19.238;2023-06-22T16:20:13;8.90;;;5.90;;
74849;SDS011;63397;47.480;19.238;2023-06-22T16:23:19;9.30;;;5.90;;
74849;SDS011;63397;47.480;19.238;2023-06-22T16:26:21;10.52;;;6.40;;
74849;SDS011;63397;47.480;19.238;2023-06-22T16:29:23;8.03;;;5.40;;
74849;SDS011;63397;47.480;19.238;2023-06-22T16:32:26;7.28;;;5.40;;
74849;SDS011;63397;47.480;19.238;2023-06-22T16:35:29;7.45;;;5.43;;
74849;SDS011;63397;47.480;19.238;2023-06-22T16:38:31;7.95;;;5.50;;
74849;SDS011;63397;47.480;19.238;2023-06-22T16:41:35;8.00;;;5.28;;
74849;SDS011;63397;47.480;19.238;2023-06-22T16:44:37;7.60;;;5.30;;
74849;SDS011;63397;47.480;19.238;2023-06-22T16:47:40;7.85;;;5.50;;
74849;SDS011;63397;47.480;19.238;2023-06-22T16:50:42;8.35;;;5.82;;
74849;SDS011;63397;47.480;19.238;2023-06-22T16:53:45;7.65;;;5.68;;
74849;SDS011;63397;47.480;19.238;2023-06-22T16:56:48;9.35;;;6.03;;
74849;SDS011;63397;47.480;19.238;2023-06-22T16:59:51;7.90;;;5.93;;
74849;SDS011;63397;47.480;19.238;2023-06-22T17:02:54;9.43;;;5.75;;
74849;SDS011;63397;47.480;19.238;2023-06-22T17:05:58;9.77;;;5.60;;
74849;SDS011;63397;47.480;19.238;2023-06-22T17:09:04;7.55;;;5.22;;
74849;SDS011;63397;47.480;19.238;2023-06-22T17:12:07;8.10;;;5.60;;
74849;SDS011;63397;47.480;19.238;2023-06-22T17:15:09;7.33;;;5.23;;
74849;SDS011;63397;47.480;19.238;2023-06-22T17:18:14;8.75;;;5.30;;
74849;SDS011;63397;47.480;19.238;2023-06-22T17:21:20;9.05;;;5.60;;
74849;SDS011;63397;47.480;19.238;2023-06-22T17:24:23;8.40;;;5.20;;
74849;SDS011;63397;47.480;19.238;2023-06-22T17:27:26;8.82;;;5.53;;
74849;SDS011;63397;47.480;19.238;2023-06-22T17:30:29;8.63;;;5.50;;
74849;SDS011;63397;47.480;19.238;2023-06-22T17:33:31;9.60;;;6.15;;
74849;SDS011;63397;47.480;19.238;2023-06-22T17:36:41;9.52;;;5.55;;
74849;SDS011;63397;47.480;19.238;2023-06-22T17:39:43;7.85;;;5.60;;
74849;SDS011;63397;47.480;19.238;2023-06-22T17:43:05;10.07;;;5.47;;
74849;SDS011;63397;47.480;19.238;2023-06-22T17:46:08;8.53;;;5.47;;
74849;SDS011;63397;47.480;19.238;2023-06-22T17:49:11;8.15;;;5.38;;
74849;SDS011;63397;47.480;19.238;2023-06-22T17:52:16;9.23;;;5.40;;
74849;SDS011;63397;47.480;19.238;2023-06-22T17:55:22;9.93;;;5.70;;
74849;SDS011;63397;47.480;19.238;2023-06-22T17:58:24;8.40;;;5.85;;
74849;SDS011;63397;47.480;19.238;2023-06-22T18:01:27;8.17;;;5.40;;
74849;SDS011;63397;47.480;19.238;2023-06-22T18:04:30;8.48;;;5.40;;
74849;SDS011;63397;47.480;19.238;2023-06-22T18:07:34;9.27;;;5.40;;
74849;SDS011;63397;47.480;19.238;2023-06-22T18:10:38;9.18;;;5.40;;